ADDS METAR Data INFO
IDs: Format: Raw Decoded Include TAF

Data at: 0207 UTC 14 Dec 2017

KMDW 140153Z 31024G33KT 9SM -SN BKN027 OVC040 M02/M07 A2957 RMK AO2 PK WND 31033/0145 SNB27 SLP026 P0000 T10171072
KMDW 140053Z 31023G30KT 10SM OVC027 M01/M07 A2952 RMK AO2 PK WND 30030/0052 PRESRR SLP007 T10111067
KMDW 132353Z 32019G36KT 10SM BKN027 OVC038 01/M06 A2945 RMK AO2 PK WND 33036/2349 SNE46 PRESRR SLP982 P0000 60000 T00061056 10033 20006 53051
KMDW 132333Z 32021G26KT 9SM -SN OVC027 01/M04 A2942 RMK AO2 PK WND 33030/2310 P0000 T00111044
KMDW 132253Z 32014G27KT 9SM -SN OVC030 02/M03 A2937 RMK AO2 PK WND 30028/2219 SNB37 SLP958 P0000 T00171033
KMDW 132153Z 30019G26KT 10SM SCT013 OVC019 02/M01 A2933 RMK AO2 PK WND 29026/2153 RAE06SNE06 SLP943 P0000 T00221011
KMDW 132053Z 27012KT 6SM -SNRA BR SCT017 BKN021 OVC029 02/01 A2929 RMK AO2 RAB44 SLP930 P0000 60000 T00220006 55015
KMDW 131953Z 23012KT 10SM -SN BKN027 OVC039 02/M01 A2927 RMK AO2 SNB22 SLP922 P0000 T00221011
KMDW 131939Z 24014KT 6SM -SN BR BKN028 OVC041 02/M02 A2928 RMK AO2 SNB22 P0000 T00221017
KMDW 131928Z 25014G24KT 2SM -SN BR BKN028 OVC070 03/M03 A2928 RMK AO2 SNB22 P0000 T00281033
KMDW 131853Z 22014KT 10SM FEW034 BKN065 OVC090 03/M05 A2929 RMK AO2 SLP930 T00331050
KMDW 131753Z 21014G21KT 10SM FEW034 BKN090 OVC150 03/M06 A2934 RMK AO2 SLP945 T00281056 10028 21033 56050
KMDW 131653Z 20014G22KT 10SM SCT140 OVC250 01/M07 A2938 RMK AO2 SLP961 T00111072
KMDW 131553Z 18016G26KT 10SM SCT090 OVC200 M01/M09 A2944 RMK AO2 PK WND 18027/1542 SLP982 T10061094
KMDW 131453Z 17015G25KT 10SM BKN085 OVC110 M01/M10 A2949 RMK AO2 PK WND 17027/1430 PRESFR SLP999 T10111100 58071
KMDW 131353Z 17013G20KT 10SM BKN085 OVC110 M02/M11 A2958 RMK AO2 SLP031 T10221111
KMDW 131253Z 17010KT 10SM BKN085 OVC110 M03/M12 A2965 RMK AO2 SLP056 T10281117
KMDW 131153Z 17010KT 10SM FEW037 BKN075 OVC095 M03/M12 A2970 RMK AO2 SLP073 T10331117 11033 21056 56042
KMDW 131053Z 17011KT 10SM BKN042 OVC080 M04/M12 A2974 RMK AO2 SLP087 T10391117
KMDW 130953Z 17009KT 10SM OVC080 M04/M12 A2978 RMK AO2 SLP100 T10441117
KMDW 130853Z 18008KT 10SM OVC032 M05/M12 A2983 RMK AO2 SLP116 T10501117 56032
KMDW 130753Z 18007KT 10SM OVC032 M05/M12 A2986 RMK AO2 SLP128 T10501122
KMDW 130653Z 19005KT 10SM OVC039 M06/M13 A2989 RMK AO2 SLP136 T10561128
KMDW 130553Z 23005KT 10SM OVC060 M06/M13 A2992 RMK AO2 SLP149 T10561133 11056 21072 400001078 58023
KMDW 130453Z 26007KT 10SM SCT048 OVC085 M06/M14 A2996 RMK AO2 SLP163 T10561139
KMDW 130353Z 28005KT 10SM BKN050 OVC080 M06/M13 A2999 RMK AO2 SLP174 T10611128
KMDW 130253Z 28006KT 10SM BKN090 M07/M13 A2999 RMK AO2 SLP173 T10671128 58012
KMDW 130153Z 28010KT 10SM SCT075 SCT150 M07/M13 A3001 RMK AO2 SLP181 T10721128
KMDW 130053Z 28009KT 10SM FEW090 SCT150 M07/M13 A3002 RMK AO2 SLP183 T10671128
KMDW 122353Z 27006KT 10SM FEW036 SCT090 SCT250 M07/M13 A3003 RMK AO2 SLP185 T10721133 11050 21072 58004
KMDW 122253Z 28007KT 10SM FEW036 FEW150 SCT250 M07/M13 A3003 RMK AO2 SLP187 T10671133
KMDW 122153Z 30014KT 10SM FEW036 FEW150 SCT250 M06/M13 A3004 RMK AO2 SLP189 T10561133
KMDW 122053Z 29014KT 10SM FEW036 FEW250 M05/M13 A3004 RMK AO2 SLP187 T10501133 56010
KMDW 121953Z 31012G18KT 10SM FEW036 FEW250 M05/M13 A3004 RMK AO2 SLP188 T10501133
KMDW 121853Z 31012G19KT 10SM FEW036 FEW250 M06/M13 A3006 RMK AO2 SLP192 T10561133
KMDW 121753Z 31013G20KT 10SM FEW036 M06/M14 A3007 RMK AO2 SLP197 I6000 T10611139 11056 21078 58008
KMDW 121653Z 34016G22KT 10SM SCT036 M06/M13 A3010 RMK AO2 SLP206 T10611133
KMDW 121553Z 34018KT 10SM FEW033 M07/M14 A3010 RMK AO2 SLP208 T10671139
KMDW 121453Z 31018G23KT 10SM FEW030 M07/M14 A3010 RMK AO2 SLP205 I3000 T10721139 51016